sensor_id;sensor_type;location;lat;lon;timestamp;P1;durP1;ratioP1;P2;durP2;ratioP2
22606;SDS011;11470;20.968;105.834;2022-09-03T00:00:40;40.33;;;31.80;;
22606;SDS011;11470;20.968;105.834;2022-09-03T00:05:55;41.28;;;32.45;;
22606;SDS011;11470;20.968;105.834;2022-09-03T00:11:24;45.08;;;33.97;;
22606;SDS011;11470;20.968;105.834;2022-09-03T00:16:44;38.28;;;31.50;;
22606;SDS011;11470;20.968;105.834;2022-09-03T00:21:59;46.33;;;33.17;;
22606;SDS011;11470;20.968;105.834;2022-09-03T00:27:15;42.60;;;33.20;;
22606;SDS011;11470;20.968;105.834;2022-09-03T00:32:38;40.10;;;30.75;;
22606;SDS011;11470;20.968;105.834;2022-09-03T00:37:55;45.67;;;35.45;;
22606;SDS011;11470;20.968;105.834;2022-09-03T01:09:40;44.28;;;34.45;;
22606;SDS011;11470;20.968;105.834;2022-09-03T01:25:27;46.45;;;36.05;;
22606;SDS011;11470;20.968;105.834;2022-09-03T01:31:18;49.97;;;37.20;;
22606;SDS011;11470;20.968;105.834;2022-09-03T01:58:13;46.47;;;37.05;;
22606;SDS011;11470;20.968;105.834;2022-09-03T02:03:46;53.33;;;38.53;;
22606;SDS011;11470;20.968;105.834;2022-09-03T02:08:53;52.05;;;39.80;;
22606;SDS011;11470;20.968;105.834;2022-09-03T02:13:59;53.75;;;39.63;;
22606;SDS011;11470;20.968;105.834;2022-09-03T02:19:06;45.97;;;35.03;;
22606;SDS011;11470;20.968;105.834;2022-09-03T02:24:15;50.72;;;38.17;;
22606;SDS011;11470;20.968;105.834;2022-09-03T02:29:20;41.70;;;34.13;;
22606;SDS011;11470;20.968;105.834;2022-09-03T02:34:29;46.63;;;37.75;;
22606;SDS011;11470;20.968;105.834;2022-09-03T02:39:34;46.42;;;36.40;;
22606;SDS011;11470;20.968;105.834;2022-09-03T02:44:50;40.55;;;33.53;;
22606;SDS011;11470;20.968;105.834;2022-09-03T02:50:00;40.55;;;31.40;;
22606;SDS011;11470;20.968;105.834;2022-09-03T02:55:06;45.10;;;32.45;;
22606;SDS011;11470;20.968;105.834;2022-09-03T03:00:12;37.28;;;29.88;;
22606;SDS011;11470;20.968;105.834;2022-09-03T03:05:26;41.90;;;32.17;;
22606;SDS011;11470;20.968;105.834;2022-09-03T03:10:51;33.03;;;27.50;;
22606;SDS011;11470;20.968;105.834;2022-09-03T03:16:02;33.60;;;28.17;;
22606;SDS011;11470;20.968;105.834;2022-09-03T03:21:13;40.88;;;31.88;;
22606;SDS011;11470;20.968;105.834;2022-09-03T03:26:20;47.22;;;39.25;;
22606;SDS011;11470;20.968;105.834;2022-09-03T03:31:29;56.90;;;42.30;;
22606;SDS011;11470;20.968;105.834;2022-09-03T03:36:36;56.38;;;42.30;;
22606;SDS011;11470;20.968;105.834;2022-09-03T03:41:41;99.88;;;48.85;;
22606;SDS011;11470;20.968;105.834;2022-09-03T03:46:47;58.17;;;46.28;;
22606;SDS011;11470;20.968;105.834;2022-09-03T03:51:52;55.03;;;40.13;;
22606;SDS011;11470;20.968;105.834;2022-09-03T03:56:57;46.35;;;37.65;;
22606;SDS011;11470;20.968;105.834;2022-09-03T04:02:03;44.17;;;36.67;;
22606;SDS011;11470;20.968;105.834;2022-09-03T04:07:09;46.45;;;36.45;;
22606;SDS011;11470;20.968;105.834;2022-09-03T04:12:15;45.55;;;33.17;;
22606;SDS011;11470;20.968;105.834;2022-09-03T04:17:22;47.08;;;35.38;;
22606;SDS011;11470;20.968;105.834;2022-09-03T04:22:28;54.55;;;39.53;;
22606;SDS011;11470;20.968;105.834;2022-09-03T04:27:34;37.72;;;31.70;;
22606;SDS011;11470;20.968;105.834;2022-09-03T04:37:58;45.60;;;35.88;;
22606;SDS011;11470;20.968;105.834;2022-09-03T04:43:03;43.45;;;34.83;;
22606;SDS011;11470;20.968;105.834;2022-09-03T04:48:10;45.70;;;35.40;;
22606;SDS011;11470;20.968;105.834;2022-09-03T04:53:15;45.33;;;36.00;;
22606;SDS011;11470;20.968;105.834;2022-09-03T05:03:26;35.17;;;29.27;;
22606;SDS011;11470;20.968;105.834;2022-09-03T05:08:34;38.30;;;28.80;;
22606;SDS011;11470;20.968;105.834;2022-09-03T05:13:40;42.22;;;34.20;;
22606;SDS011;11470;20.968;105.834;2022-09-03T05:18:46;37.40;;;33.25;;
22606;SDS011;11470;20.968;105.834;2022-09-03T05:23:51;34.28;;;29.27;;
22606;SDS011;11470;20.968;105.834;2022-09-03T05:28:58;37.25;;;29.95;;
22606;SDS011;11470;20.968;105.834;2022-09-03T05:34:05;31.40;;;25.45;;
22606;SDS011;11470;20.968;105.834;2022-09-03T05:39:19;35.10;;;28.10;;
22606;SDS011;11470;20.968;105.834;2022-09-03T05:49:30;30.93;;;27.63;;
22606;SDS011;11470;20.968;105.834;2022-09-03T05:54:36;31.25;;;25.65;;
22606;SDS011;11470;20.968;105.834;2022-09-03T05:59:42;32.50;;;24.05;;
22606;SDS011;11470;20.968;105.834;2022-09-03T06:09:52;35.17;;;29.52;;
22606;SDS011;11470;20.968;105.834;2022-09-03T06:20:03;31.60;;;25.98;;
22606;SDS011;11470;20.968;105.834;2022-09-03T06:25:08;35.55;;;28.60;;
22606;SDS011;11470;20.968;105.834;2022-09-03T06:30:15;27.45;;;22.17;;
22606;SDS011;11470;20.968;105.834;2022-09-03T06:35:20;29.27;;;24.40;;
22606;SDS011;11470;20.968;105.834;2022-09-03T06:40:27;33.97;;;28.63;;
22606;SDS011;11470;20.968;105.834;2022-09-03T06:45:34;29.38;;;26.33;;
22606;SDS011;11470;20.968;105.834;2022-09-03T06:50:41;29.27;;;25.75;;
22606;SDS011;11470;20.968;105.834;2022-09-03T06:55:56;33.58;;;27.45;;
22606;SDS011;11470;20.968;105.834;2022-09-03T07:01:05;30.58;;;25.05;;
22606;SDS011;11470;20.968;105.834;2022-09-03T07:06:15;33.15;;;28.50;;
22606;SDS011;11470;20.968;105.834;2022-09-03T07:11:24;34.10;;;30.10;;
22606;SDS011;11470;20.968;105.834;2022-09-03T07:16:33;31.35;;;27.02;;
22606;SDS011;11470;20.968;105.834;2022-09-03T07:21:40;29.85;;;26.33;;
22606;SDS011;11470;20.968;105.834;2022-09-03T07:26:52;31.30;;;26.92;;
22606;SDS011;11470;20.968;105.834;2022-09-03T07:31:58;34.63;;;26.20;;
22606;SDS011;11470;20.968;105.834;2022-09-03T07:37:06;30.58;;;27.38;;
22606;SDS011;11470;20.968;105.834;2022-09-03T07:42:14;33.35;;;27.00;;
22606;SDS011;11470;20.968;105.834;2022-09-03T07:47:20;32.08;;;27.02;;
22606;SDS011;11470;20.968;105.834;2022-09-03T07:52:28;34.63;;;28.00;;
22606;SDS011;11470;20.968;105.834;2022-09-03T07:57:34;29.77;;;26.38;;
22606;SDS011;11470;20.968;105.834;2022-09-03T08:02:40;28.00;;;24.70;;
22606;SDS011;11470;20.968;105.834;2022-09-03T08:07:47;31.05;;;27.17;;
22606;SDS011;11470;20.968;105.834;2022-09-03T08:12:56;31.88;;;26.50;;
22606;SDS011;11470;20.968;105.834;2022-09-03T08:18:02;31.17;;;27.52;;
22606;SDS011;11470;20.968;105.834;2022-09-03T08:23:08;33.28;;;29.55;;
22606;SDS011;11470;20.968;105.834;2022-09-03T08:28:13;36.45;;;31.67;;
22606;SDS011;11470;20.968;105.834;2022-09-03T08:33:19;35.88;;;30.27;;
22606;SDS011;11470;20.968;105.834;2022-09-03T08:38:45;37.45;;;30.52;;
22606;SDS011;11470;20.968;105.834;2022-09-03T08:44:05;37.80;;;31.55;;
22606;SDS011;11470;20.968;105.834;2022-09-03T08:55:50;39.28;;;29.17;;
22606;SDS011;11470;20.968;105.834;2022-09-03T09:05:58;32.70;;;27.45;;
22606;SDS011;11470;20.968;105.834;2022-09-03T09:11:31;39.35;;;27.88;;
22606;SDS011;11470;20.968;105.834;2022-09-03T09:22:02;28.38;;;24.48;;
22606;SDS011;11470;20.968;105.834;2022-09-03T09:27:14;32.50;;;26.10;;
22606;SDS011;11470;20.968;105.834;2022-09-03T09:32:20;36.05;;;26.77;;
22606;SDS011;11470;20.968;105.834;2022-09-03T09:37:26;32.63;;;27.63;;
22606;SDS011;11470;20.968;105.834;2022-09-03T09:42:32;31.95;;;25.45;;
22606;SDS011;11470;20.968;105.834;2022-09-03T09:47:38;40.03;;;28.40;;
22606;SDS011;11470;20.968;105.834;2022-09-03T09:52:45;31.35;;;25.17;;
22606;SDS011;11470;20.968;105.834;2022-09-03T09:57:52;29.48;;;24.52;;
22606;SDS011;11470;20.968;105.834;2022-09-03T10:03:15;30.58;;;24.98;;
22606;SDS011;11470;20.968;105.834;2022-09-03T10:08:24;33.65;;;26.40;;
22606;SDS011;11470;20.968;105.834;2022-09-03T10:13:33;33.00;;;25.95;;
22606;SDS011;11470;20.968;105.834;2022-09-03T10:29:20;38.28;;;29.35;;
22606;SDS011;11470;20.968;105.834;2022-09-03T10:44:59;40.58;;;30.33;;
22606;SDS011;11470;20.968;105.834;2022-09-03T10:50:29;43.97;;;34.38;;
22606;SDS011;11470;20.968;105.834;2022-09-03T10:55:56;45.72;;;33.38;;
22606;SDS011;11470;20.968;105.834;2022-09-03T11:01:29;39.95;;;32.45;;
22606;SDS011;11470;20.968;105.834;2022-09-03T11:06:34;48.25;;;35.92;;
22606;SDS011;11470;20.968;105.834;2022-09-03T11:11:58;59.13;;;42.88;;
22606;SDS011;11470;20.968;105.834;2022-09-03T11:17:14;51.20;;;40.95;;
22606;SDS011;11470;20.968;105.834;2022-09-03T11:22:22;48.03;;;36.65;;
22606;SDS011;11470;20.968;105.834;2022-09-03T11:32:58;54.50;;;38.97;;
22606;SDS011;11470;20.968;105.834;2022-09-03T11:48:39;51.65;;;38.88;;
22606;SDS011;11470;20.968;105.834;2022-09-03T11:53:53;58.85;;;43.08;;
22606;SDS011;11470;20.968;105.834;2022-09-03T12:04:10;42.22;;;31.50;;
22606;SDS011;11470;20.968;105.834;2022-09-03T12:20:30;59.42;;;38.72;;
22606;SDS011;11470;20.968;105.834;2022-09-03T12:25:41;49.22;;;34.15;;
22606;SDS011;11470;20.968;105.834;2022-09-03T12:30:50;50.55;;;36.58;;
22606;SDS011;11470;20.968;105.834;2022-09-03T12:35:57;50.70;;;33.85;;
22606;SDS011;11470;20.968;105.834;2022-09-03T12:41:04;43.17;;;32.40;;
22606;SDS011;11470;20.968;105.834;2022-09-03T12:46:30;47.42;;;32.72;;
22606;SDS011;11470;20.968;105.834;2022-09-03T12:51:39;43.70;;;29.73;;
22606;SDS011;11470;20.968;105.834;2022-09-03T12:56:56;39.95;;;30.10;;
22606;SDS011;11470;20.968;105.834;2022-09-03T13:02:12;37.63;;;28.88;;
22606;SDS011;11470;20.968;105.834;2022-09-03T13:07:54;43.00;;;29.15;;
22606;SDS011;11470;20.968;105.834;2022-09-03T13:34:35;46.15;;;31.13;;
22606;SDS011;11470;20.968;105.834;2022-09-03T13:39:47;43.95;;;31.40;;
22606;SDS011;11470;20.968;105.834;2022-09-03T13:45:15;36.05;;;28.52;;
22606;SDS011;11470;20.968;105.834;2022-09-03T14:12:43;35.40;;;26.93;;
22606;SDS011;11470;20.968;105.834;2022-09-03T14:23:33;39.10;;;28.52;;
22606;SDS011;11470;20.968;105.834;2022-09-03T14:29:01;33.03;;;25.25;;
22606;SDS011;11470;20.968;105.834;2022-09-03T14:39:55;34.60;;;26.77;;
22606;SDS011;11470;20.968;105.834;2022-09-03T15:01:28;36.75;;;27.42;;
22606;SDS011;11470;20.968;105.834;2022-09-03T15:17:31;34.38;;;27.65;;
22606;SDS011;11470;20.968;105.834;2022-09-03T15:33:16;41.15;;;29.35;;
22606;SDS011;11470;20.968;105.834;2022-09-03T15:43:47;38.15;;;28.33;;
22606;SDS011;11470;20.968;105.834;2022-09-03T15:48:59;41.15;;;31.08;;
22606;SDS011;11470;20.968;105.834;2022-09-03T16:10:20;39.28;;;31.45;;
22606;SDS011;11470;20.968;105.834;2022-09-03T16:15:40;37.80;;;27.55;;
22606;SDS011;11470;20.968;105.834;2022-09-03T16:26:33;42.25;;;31.95;;
22606;SDS011;11470;20.968;105.834;2022-09-03T16:31:43;39.22;;;30.02;;
22606;SDS011;11470;20.968;105.834;2022-09-03T16:43:05;38.10;;;24.00;;
22606;SDS011;11470;20.968;105.834;2022-09-03T17:26:36;39.83;;;30.27;;
22606;SDS011;11470;20.968;105.834;2022-09-03T17:31:50;40.28;;;31.45;;
22606;SDS011;11470;20.968;105.834;2022-09-03T17:37:20;38.95;;;29.25;;
22606;SDS011;11470;20.968;105.834;2022-09-03T17:43:10;35.33;;;27.83;;
22606;SDS011;11470;20.968;105.834;2022-09-03T17:59:28;41.53;;;30.80;;
22606;SDS011;11470;20.968;105.834;2022-09-03T18:10:31;41.58;;;31.55;;
22606;SDS011;11470;20.968;105.834;2022-09-03T18:21:21;42.40;;;30.33;;
22606;SDS011;11470;20.968;105.834;2022-09-03T18:27:00;38.17;;;31.17;;
22606;SDS011;11470;20.968;105.834;2022-09-03T18:38:25;39.90;;;28.13;;
22606;SDS011;11470;20.968;105.834;2022-09-03T18:49:42;39.13;;;30.77;;
22606;SDS011;11470;20.968;105.834;2022-09-03T19:12:11;35.70;;;28.73;;
22606;SDS011;11470;20.968;105.834;2022-09-03T19:18:06;35.70;;;27.97;;
22606;SDS011;11470;20.968;105.834;2022-09-03T19:23:49;39.45;;;27.92;;
22606;SDS011;11470;20.968;105.834;2022-09-03T19:29:18;46.22;;;31.08;;
22606;SDS011;11470;20.968;105.834;2022-09-03T19:35:11;39.45;;;28.98;;
22606;SDS011;11470;20.968;105.834;2022-09-03T19:46:49;36.05;;;30.00;;
22606;SDS011;11470;20.968;105.834;2022-09-03T19:58:06;33.78;;;27.65;;
22606;SDS011;11470;20.968;105.834;2022-09-03T20:03:45;35.85;;;29.05;;
22606;SDS011;11470;20.968;105.834;2022-09-03T20:09:09;42.22;;;32.30;;
22606;SDS011;11470;20.968;105.834;2022-09-03T20:14:37;36.38;;;29.02;;
22606;SDS011;11470;20.968;105.834;2022-09-03T20:30:25;41.50;;;30.52;;
22606;SDS011;11470;20.968;105.834;2022-09-03T20:41:09;46.97;;;35.83;;
22606;SDS011;11470;20.968;105.834;2022-09-03T21:07:55;58.47;;;42.35;;
22606;SDS011;11470;20.968;105.834;2022-09-03T21:13:13;50.35;;;40.72;;
22606;SDS011;11470;20.968;105.834;2022-09-03T21:18:33;47.63;;;38.38;;
22606;SDS011;11470;20.968;105.834;2022-09-03T21:23:47;52.67;;;41.72;;
22606;SDS011;11470;20.968;105.834;2022-09-03T21:29:08;46.70;;;37.08;;
22606;SDS011;11470;20.968;105.834;2022-09-03T21:34:30;52.72;;;42.72;;
22606;SDS011;11470;20.968;105.834;2022-09-03T21:39:47;55.10;;;40.55;;
22606;SDS011;11470;20.968;105.834;2022-09-03T21:45:07;48.47;;;36.63;;
22606;SDS011;11470;20.968;105.834;2022-09-03T21:50:18;57.53;;;43.90;;
22606;SDS011;11470;20.968;105.834;2022-09-03T21:55:48;49.55;;;38.80;;
22606;SDS011;11470;20.968;105.834;2022-09-03T22:01:08;52.42;;;41.35;;
22606;SDS011;11470;20.968;105.834;2022-09-03T22:06:21;52.47;;;40.10;;
22606;SDS011;11470;20.968;105.834;2022-09-03T22:11:34;59.67;;;41.97;;
22606;SDS011;11470;20.968;105.834;2022-09-03T22:17:03;56.30;;;43.00;;
22606;SDS011;11470;20.968;105.834;2022-09-03T22:22:21;50.55;;;40.70;;
22606;SDS011;11470;20.968;105.834;2022-09-03T22:28:07;50.95;;;39.65;;
22606;SDS011;11470;20.968;105.834;2022-09-03T22:39:02;57.73;;;44.37;;
22606;SDS011;11470;20.968;105.834;2022-09-03T22:50:27;50.70;;;38.88;;
22606;SDS011;11470;20.968;105.834;2022-09-03T22:55:36;60.17;;;42.58;;
22606;SDS011;11470;20.968;105.834;2022-09-03T23:06:38;50.25;;;38.92;;
22606;SDS011;11470;20.968;105.834;2022-09-03T23:11:57;61.80;;;44.05;;
22606;SDS011;11470;20.968;105.834;2022-09-03T23:17:12;55.25;;;41.95;;
22606;SDS011;11470;20.968;105.834;2022-09-03T23:27:39;51.53;;;41.53;;
22606;SDS011;11470;20.968;105.834;2022-09-03T23:33:04;58.92;;;44.47;;
22606;SDS011;11470;20.968;105.834;2022-09-03T23:44:14;55.58;;;41.45;;
